Terminal Aerodrome Forecast
Issued by NWS

Home | Current Version | Previous Version | Text Only | Print | Product List | Glossary On
Versions: 1 2 3 4 5 6 7 8 9 10 11 12 13
000
FTUS45 KPIH 060816 RRA
TAFSUN
TAF
KSUN 060816Z 0608/0706 30008KT P6SM SCT090 BKN140
     FM061000 VRB06KT P6SM VCSH FEW030 BKN050 BKN100
     FM061900 15008KT P6SM VCTS FEW050 BKN070CB BKN090
     FM070200 30006KT P6SM VCSH SCT080 BKN110=

USA.gov is the U.S. government's official web portal to all federal, state and local government web resources and services.